aviador You're here:

KIPJ Decoded Metar

LINCOLNTON in NC, USA
Report Time2017-04-29 10:50:00
UTC Time2017-04-29 11:14:59
Flight Rules ifr IFR
WindCalm
Visibility4828 m
Phenomena:Mist
Clouds:Overcast 006 Hf
Expected CloudBase > 400 ft AGL from Temp-Dew spread
Ceiling600 ft
Temp21°C (ISA +8)
Dew Point20°C (94% RH)
QNH1022 hPa
Density Alt1,788 ft
Elevation876 ft
Report Wrong Elevation
Raw Report
KIPJ 291050Z AUTO 00000KT 3SM BR OVC006 21/20 A3017=

Extra information for KIPJ:More info

Metar Taf Metar & Taf Last 4 Metars F.Rules Stats Wind Profile Meteogram Temp Stats Airport Information Weather charts Add Link Nearby VenuesMetar ALERT Operation Metar Decoded Social comments

AIRNAV info for KIPJ